Time;durP1;ratioP1;P1;durP2;ratioP2;P2;SDS_P1;SDS_P2;PMS_P1;PMS_P2;Temp;Humidity;BMP_temperature;BMP_pressure;BME280_temperature;BME280_humidity;BME280_pressure;Samples;Min_cycle;Max_cycle;Signal;HPM_P1;HPM_P2
2022/01/19 00:01:13;;;;;;;;;17.25;17.25;;;;;7.14;67.89;102499.97;5056349;28;45260;-63
2022/01/19 00:03:39;;;;;;;;;20.25;18.25;;;;;7.08;67.44;102500.94;5056141;28;45975;-62
2022/01/19 00:06:05;;;;;;;;;25.25;17.25;;;;;7.05;68.04;102506.25;5055164;28;45507;-63
2022/01/19 00:08:30;;;;;;;;;25.50;24.00;;;;;7.03;67.63;102508.03;5056351;28;45279;-63
2022/01/19 00:10:57;;;;;;;;;16.75;14.25;;;;;6.93;68.32;102502.88;5056414;28;45564;-61
2022/01/19 00:13:22;;;;;;;;;20.75;19.75;;;;;6.89;68.37;102499.34;5055653;28;45639;-62
2022/01/19 00:15:48;;;;;;;;;28.50;19.25;;;;;6.78;68.08;102502.13;5055811;28;45395;-62
2022/01/19 00:18:17;;;;;;;;;24.25;20.25;;;;;6.77;68.42;102494.19;5037765;28;45545;-64
2022/01/19 00:20:42;;;;;;;;;26.00;21.50;;;;;6.78;69.23;102480.09;5056047;28;45349;-64
2022/01/19 00:23:09;;;;;;;;;21.00;20.00;;;;;6.73;68.50;102460.75;5055943;28;45777;-62
2022/01/19 00:25:35;;;;;;;;;20.50;16.50;;;;;6.72;68.65;102445.78;5055949;28;45410;-61
2022/01/19 00:28:00;;;;;;;;;24.00;18.00;;;;;6.78;68.60;102453.66;5055592;28;45301;-64
2022/01/19 00:30:27;;;;;;;;;20.50;19.00;;;;;6.78;68.70;102445.72;5056105;28;45225;-64
2022/01/19 00:32:53;;;;;;;;;20.75;20.75;;;;;6.71;69.04;102426.38;5055528;28;45343;-65
2022/01/19 00:35:18;;;;;;;;;23.50;18.25;;;;;6.60;69.13;102417.69;5055342;28;45294;-63
2022/01/19 00:37:44;;;;;;;;;21.25;15.75;;;;;6.59;68.83;102421.22;5055525;28;45267;-62
2022/01/19 00:40:12;;;;;;;;;20.00;17.00;;;;;6.53;69.71;102415.16;5037922;28;45613;-62
2022/01/19 00:42:38;;;;;;;;;19.75;18.00;;;;;6.56;69.60;102437.13;5054488;28;48031;-64
2022/01/19 00:45:05;;;;;;;;;26.00;20.25;;;;;6.64;68.84;102442.31;5059197;28;45339;-64
2022/01/19 00:47:30;;;;;;;;;16.25;16.25;;;;;6.71;68.98;102441.38;5059557;28;45383;-61
2022/01/19 00:49:56;;;;;;;;;21.75;18.25;;;;;6.74;68.37;102429.00;5058643;28;45308;-62
2022/01/19 00:52:21;;;;;;;;;18.50;17.00;;;;;6.84;68.07;102432.41;5057969;28;45411;-62
2022/01/19 00:54:47;;;;;;;;;22.00;17.25;;;;;6.93;67.76;102442.03;5059098;28;45287;-63
2022/01/19 00:57:13;;;;;;;;;20.75;18.75;;;;;6.92;68.02;102441.16;5024304;28;45472;-63
2022/01/19 00:59:38;;;;;;;;;19.75;17.25;;;;;6.89;67.85;102433.22;5059665;28;45514;-62
2022/01/19 01:02:04;;;;;;;;;42.00;33.00;;;;;7.01;67.40;102434.84;5058550;28;45867;-63
2022/01/19 01:04:32;;;;;;;;;25.25;19.50;;;;;7.02;67.90;102431.31;5058332;28;45342;-62
2022/01/19 01:06:57;;;;;;;;;28.25;23.00;;;;;7.05;67.86;102431.31;5058301;28;45419;-62
2022/01/19 01:09:23;;;;;;;;;20.00;20.00;;;;;7.09;67.59;102425.94;5059035;28;45368;-63
2022/01/19 01:11:59;;;;;;;;;20.25;17.25;;;;;7.14;67.13;102425.00;5058438;28;45445;-60
2022/01/19 01:18:17;;;;;;;;;26.25;23.50;;;;;7.15;67.34;102395.00;5058635;28;45335;-63
2022/01/19 01:19:56;;;;;;;;;17.25;14.75;;;;;7.18;67.06;102389.69;5058213;28;45394;-63
2022/01/19 01:22:21;;;;;;;;;23.75;22.75;;;;;7.19;66.87;102387.03;5058097;28;45221;-61
2022/01/19 01:24:47;;;;;;;;;25.50;22.25;;;;;7.16;66.96;102386.16;5058547;28;45228;-63
2022/01/19 01:27:12;;;;;;;;;16.75;14.75;;;;;7.16;66.96;102378.22;5040483;28;45579;-63
2022/01/19 01:29:37;;;;;;;;;20.00;15.75;;;;;7.12;67.07;102374.75;5059009;28;45589;-61
2022/01/19 01:32:03;;;;;;;;;23.75;20.00;;;;;7.20;66.90;102394.06;5040279;28;46460;-64
2022/01/19 01:34:29;;;;;;;;;18.75;17.25;;;;;7.23;66.75;102393.16;5057858;28;45477;-61
2022/01/19 01:36:54;;;;;;;;;27.50;21.25;;;;;7.26;67.08;102406.31;5040458;28;45355;-61
2022/01/19 01:39:20;;;;;;;;;32.00;24.75;;;;;7.27;66.79;102410.72;5058370;28;45474;-62
2022/01/19 01:41:45;;;;;;;;;27.00;22.50;;;;;7.25;66.92;102407.22;5056973;28;45939;-63
2022/01/19 01:44:11;;;;;;;;;22.50;20.25;;;;;7.26;66.92;102398.38;5057796;28;45694;-62
2022/01/19 01:46:47;;;;;;;;;25.50;19.25;;;;;7.30;66.77;102392.19;5058292;28;45406;-62
2022/01/19 01:49:21;;;;;;;;;23.00;21.50;;;;;7.28;66.72;102396.59;5038490;28;45423;-62
2022/01/19 01:54:30;;;;;;;;;24.50;21.75;;;;;7.27;66.46;102385.13;5057503;28;45339;-61
2022/01/19 01:56:56;;;;;;;;;22.75;20.25;;;;;7.28;66.58;102386.88;5058540;28;45477;-61
2022/01/19 01:59:21;;;;;;;;;21.25;19.75;;;;;7.25;66.74;102378.13;5057492;28;45622;-63
2022/01/19 02:01:47;;;;;;;;;24.25;17.50;;;;;7.25;66.58;102375.47;5057930;28;46073;-62
2022/01/19 02:04:13;;;;;;;;;26.00;17.75;;;;;7.17;66.93;102361.50;5057653;28;45440;-62
2022/01/19 02:09:36;;;;;;;;;24.25;21.25;;;;;7.10;66.72;102358.91;4985514;28;45668;-64
2022/01/19 02:23:19;;;;;;;;;30.00;21.25;;;;;7.14;67.16;102335.91;5042332;28;45783;-61
2022/01/19 02:25:47;;;;;;;;;30.50;23.25;;;;;7.11;67.23;102328.03;5057671;28;45389;-62
2022/01/19 02:41:41;;;;;;;;;25.50;21.25;;;;;7.13;66.81;102294.47;5058042;28;45334;-64
2022/01/19 02:44:10;;;;;;;;;28.25;21.50;;;;;7.10;66.45;102284.81;5036982;28;45388;-62
2022/01/19 02:49:17;;;;;;;;;21.00;18.75;;;;;7.05;67.39;102272.56;5056457;28;45469;-61
2022/01/19 02:51:53;;;;;;;;;22.75;20.25;;;;;7.06;66.85;102274.31;5057636;28;45244;-62
2022/01/19 02:54:23;;;;;;;;;20.50;16.75;;;;;7.08;67.15;102278.69;5036893;28;45415;-62
2022/01/19 02:56:52;;;;;;;;;24.25;20.75;;;;;7.06;67.20;102269.03;5039179;28;45270;-62
2022/01/19 02:59:38;;;;;;;;;24.25;22.00;;;;;6.95;67.00;102258.59;5057228;28;45375;-63
2022/01/19 03:10:16;;;;;;;;;27.75;22.25;;;;;7.05;66.67;102262.00;5057480;28;45367;-62
2022/01/19 03:12:42;;;;;;;;;20.00;20.00;;;;;7.03;66.44;102253.19;5032114;28;45648;-61
2022/01/19 03:15:10;;;;;;;;;20.50;19.25;;;;;7.01;66.53;102254.97;5036620;28;45410;-61
2022/01/19 03:17:35;;;;;;;;;22.25;22.25;;;;;7.06;66.54;102261.09;5055604;28;45534;-59
2022/01/19 03:20:01;;;;;;;;;27.75;21.25;;;;;7.09;66.61;102261.03;5056987;28;45849;-62
2022/01/19 03:22:34;;;;;;;;;24.75;20.25;;;;;7.05;65.99;102240.84;5056975;28;45721;-62
2022/01/19 03:25:00;;;;;;;;;28.50;24.25;;;;;7.07;66.45;102244.31;5056272;28;45463;-63
2022/01/19 03:27:26;;;;;;;;;27.25;26.00;;;;;7.08;66.28;102244.28;5056423;28;45611;-61
2022/01/19 03:29:51;;;;;;;;;24.25;22.50;;;;;7.08;66.18;102235.50;5056708;28;45377;-64
2022/01/19 03:32:17;;;;;;;;;35.00;26.00;;;;;7.07;66.35;102239.91;5038743;28;45474;-61
2022/01/19 03:34:42;;;;;;;;;18.25;18.25;;;;;7.05;66.04;102241.72;5038402;28;47753;-63
2022/01/19 03:37:08;;;;;;;;;30.50;27.75;;;;;7.10;65.78;102234.56;5026763;28;45339;-62
2022/01/19 03:39:34;;;;;;;;;19.25;19.00;;;;;7.09;65.98;102227.53;5048168;28;45404;-62
2022/01/19 03:42:00;;;;;;;;;27.75;21.00;;;;;7.08;66.18;102241.66;5038269;28;45233;-64
2022/01/19 03:44:26;;;;;;;;;28.75;24.00;;;;;7.08;65.59;102235.50;5037881;28;46714;-62
2022/01/19 03:47:00;;;;;;;;;23.25;19.25;;;;;7.10;65.61;102234.56;5056230;28;45406;-62
2022/01/19 03:49:29;;;;;;;;;32.00;27.25;;;;;7.13;65.75;102233.63;5056163;28;45406;-63
2022/01/19 03:51:58;;;;;;;;;27.75;22.50;;;;;7.16;65.20;102233.59;5055483;28;45502;-62
2022/01/19 03:54:31;;;;;;;;;25.50;22.25;;;;;7.18;65.35;102229.16;5055850;28;47291;-62
2022/01/19 03:56:56;;;;;;;;;18.75;15.00;;;;;7.23;65.33;102223.78;5056210;28;45379;-61
2022/01/19 03:59:22;;;;;;;;;27.50;26.00;;;;;7.21;65.18;102222.94;5037805;28;45640;-63
2022/01/19 04:01:51;;;;;;;;;29.50;28.00;;;;;7.19;65.47;102211.50;5056142;28;45274;-62
2022/01/19 04:04:33;;;;;;;;;30.50;28.25;;;;;7.23;64.93;102208.78;5056490;28;45469;-62
2022/01/19 04:09:26;;;;;;;;;35.25;24.25;;;;;7.29;64.70;102214.00;5055926;28;45288;-63
2022/01/19 04:11:52;;;;;;;;;30.75;26.75;;;;;7.22;64.53;102200.88;5037468;28;45585;-62
2022/01/19 04:14:27;;;;;;;;;24.50;22.25;;;;;7.27;65.03;102206.94;5038182;28;45450;-61
2022/01/19 04:16:58;;;;;;;;;26.75;24.25;;;;;7.32;65.04;102210.41;5055478;28;45536;-62
2022/01/19 04:19:33;;;;;;;;;25.25;23.75;;;;;7.34;64.79;102200.66;5055705;28;45355;-63
2022/01/19 04:22:04;;;;;;;;;24.75;22.00;;;;;7.34;64.73;102201.53;5055581;28;45473;-63
2022/01/19 04:24:31;;;;;;;;;26.25;23.75;;;;;7.29;64.13;102198.13;5037553;28;45399;-62
2022/01/19 04:26:58;;;;;;;;;25.25;22.25;;;;;7.32;64.42;102213.06;5025921;28;45334;-64
2022/01/19 04:29:25;;;;;;;;;29.75;27.75;;;;;7.28;64.60;102216.63;5035902;28;45295;-64
2022/01/19 04:31:51;;;;;;;;;29.00;25.50;;;;;7.31;64.85;102212.19;5053748;28;45458;-61
2022/01/19 04:34:18;;;;;;;;;31.75;25.00;;;;;7.33;64.94;102209.50;5055683;28;46186;-63
2022/01/19 05:01:46;;;;;;;;;34.25;27.50;;;;;7.42;65.52;102206.69;5055136;28;45295;-62
2022/01/19 05:06:46;;;;;;;;;32.50;28.50;;;;;7.44;65.50;102207.56;5054915;28;45450;-61
2022/01/19 05:09:28;;;;;;;;;35.00;32.00;;;;;7.46;65.63;102200.47;5037133;28;45417;-61
2022/01/19 05:14:38;;;;;;;;;37.75;30.75;;;;;7.38;65.86;102213.81;5055097;28;45247;-63
2022/01/19 05:17:04;;;;;;;;;29.50;24.75;;;;;7.32;65.64;102202.47;5055168;28;46030;-62
2022/01/19 05:19:29;;;;;;;;;28.75;25.75;;;;;7.24;65.84;102199.94;5054796;28;45244;-62
2022/01/19 05:21:54;;;;;;;;;27.75;26.00;;;;;7.31;65.95;102206.03;5055349;28;45221;-62
2022/01/19 05:24:20;;;;;;;;;38.25;32.50;;;;;7.28;65.70;102216.63;5055126;28;45303;-63
2022/01/19 05:26:46;;;;;;;;;34.50;30.75;;;;;7.23;65.71;102202.63;5055138;28;46111;-62
2022/01/19 05:29:12;;;;;;;;;27.75;24.50;;;;;7.10;66.56;102202.81;5036747;28;45489;-63
2022/01/19 05:31:37;;;;;;;;;27.25;23.25;;;;;7.02;66.85;102204.69;5053472;28;45539;-62
2022/01/19 05:34:03;;;;;;;;;28.75;24.75;;;;;6.98;67.36;102196.84;5033207;28;45594;-62
2022/01/19 05:36:29;;;;;;;;;26.00;23.75;;;;;7.03;67.35;102210.84;5057795;28;46199;-64
2022/01/19 05:38:54;;;;;;;;;24.25;19.00;;;;;7.03;66.83;102201.19;5057508;28;45451;-61
2022/01/19 05:41:21;;;;;;;;;27.50;25.50;;;;;7.06;66.83;102201.13;5058850;28;45593;-63
2022/01/19 05:43:46;;;;;;;;;28.00;27.50;;;;;7.01;66.88;102192.38;5058459;28;45231;-63
2022/01/19 05:46:12;;;;;;;;;31.50;25.50;;;;;7.08;66.96;102194.03;5058482;28;45998;-62
2022/01/19 05:48:37;;;;;;;;;28.50;25.00;;;;;7.14;67.31;102197.47;5057968;28;45316;-61
2022/01/19 05:51:03;;;;;;;;;23.25;21.50;;;;;7.16;66.94;102201.84;5057521;28;45471;-65
2022/01/19 05:53:28;;;;;;;;;30.25;24.75;;;;;7.17;67.11;102208.03;5058475;28;45418;-62
2022/01/19 05:55:54;;;;;;;;;32.50;30.25;;;;;7.14;67.23;102202.75;5057653;28;45311;-61
2022/01/19 05:58:19;;;;;;;;;27.50;25.25;;;;;7.03;67.82;102198.53;5040177;28;45296;-64
2022/01/19 06:00:44;;;;;;;;;28.75;24.75;;;;;7.03;67.15;102190.59;5057507;28;45606;-63
2022/01/19 06:03:12;;;;;;;;;25.75;25.00;;;;;7.15;67.03;102196.56;5040302;28;45631;-64
2022/01/19 06:05:38;;;;;;;;;34.00;28.00;;;;;6.87;67.34;102162.63;5023136;28;45662;-64
2022/01/19 06:11:01;;;;;;;;;33.50;27.75;;;;;7.22;67.20;102208.81;5012639;28;45352;-62
2022/01/19 06:13:27;;;;;;;;;35.50;26.75;;;;;7.23;67.27;102203.50;5039546;28;45471;-63
2022/01/19 06:15:53;;;;;;;;;34.50;28.50;;;;;7.25;67.00;102195.53;5057143;28;45291;-62
2022/01/19 06:18:19;;;;;;;;;31.50;26.75;;;;;7.27;67.33;102199.88;5055969;28;45557;-62
2022/01/19 06:20:45;;;;;;;;;37.75;35.25;;;;;7.30;67.10;102188.41;5057270;28;45443;-63
2022/01/19 06:23:11;;;;;;;;;38.75;33.75;;;;;7.27;67.08;102191.06;5057864;28;45276;-63
2022/01/19 06:25:37;;;;;;;;;34.25;29.00;;;;;7.20;66.90;102190.31;5039642;28;47093;-63
2022/01/19 06:28:03;;;;;;;;;43.25;36.75;;;;;7.27;66.97;102199.00;5039638;28;45330;-62
2022/01/19 06:30:29;;;;;;;;;37.50;30.25;;;;;7.27;66.80;102189.28;5053274;28;45843;-62
2022/01/19 06:32:54;;;;;;;;;36.75;30.50;;;;;7.24;67.41;102178.78;5053071;28;45469;-62
2022/01/19 06:35:21;;;;;;;;;41.25;33.75;;;;;7.28;67.18;102188.41;5039660;28;45330;-63
2022/01/19 06:37:47;;;;;;;;;34.25;34.25;;;;;7.22;67.44;102177.06;5056742;28;45729;-63
2022/01/19 06:40:14;;;;;;;;;34.25;31.50;;;;;7.28;66.98;102182.22;5031623;28;45380;-61
2022/01/19 06:42:41;;;;;;;;;33.50;31.00;;;;;7.23;67.40;102181.44;5036919;28;45335;-62
2022/01/19 06:45:07;;;;;;;;;39.50;36.00;;;;;7.15;67.93;102181.56;5051109;28;45438;-62
2022/01/19 06:47:33;;;;;;;;;35.25;30.25;;;;;7.22;67.49;102179.69;5022498;28;45396;-61
2022/01/19 06:49:58;;;;;;;;;46.50;39.50;;;;;7.16;68.23;102169.19;5057344;28;45395;-63
2022/01/19 06:52:24;;;;;;;;;44.00;34.00;;;;;7.24;68.08;102177.91;5039668;28;45405;-63
2022/01/19 06:54:50;;;;;;;;;39.50;36.50;;;;;7.26;68.21;102173.44;5057096;28;45422;-63
2022/01/19 06:57:15;;;;;;;;;34.75;33.75;;;;;7.24;67.72;102183.19;5056895;28;45489;-59
2022/01/19 06:59:41;;;;;;;;;42.25;36.25;;;;;7.22;68.08;102179.69;5057326;28;45819;-64
2022/01/19 07:02:07;;;;;;;;;35.50;32.50;;;;;7.26;67.88;102181.38;5057685;28;45840;-63
2022/01/19 07:04:33;;;;;;;;;35.75;32.50;;;;;7.28;68.15;102177.81;5056986;28;45312;-65
2022/01/19 07:06:58;;;;;;;;;40.00;39.00;;;;;7.31;67.75;102179.56;5052850;28;45423;-63
2022/01/19 07:09:24;;;;;;;;;38.00;35.50;;;;;7.32;67.91;102182.16;5057109;28;45312;-61
2022/01/19 07:11:49;;;;;;;;;42.50;36.00;;;;;7.33;68.01;102183.03;5039024;28;45656;-60
2022/01/19 07:14:17;;;;;;;;;48.00;39.75;;;;;7.34;68.33;102174.19;5055332;28;46824;-62
2022/01/19 07:16:42;;;;;;;;;45.25;40.00;;;;;7.36;68.27;102173.28;5056704;28;45425;-59
2022/01/19 07:19:08;;;;;;;;;40.75;37.00;;;;;7.43;68.29;102184.63;5038784;28;45360;-60
2022/01/19 07:21:34;;;;;;;;;49.25;40.50;;;;;7.45;68.42;102181.97;5057107;28;45497;-60
2022/01/19 07:23:59;;;;;;;;;48.00;40.00;;;;;7.44;67.88;102175.78;5055475;28;45454;-61
2022/01/19 07:26:25;;;;;;;;;39.50;38.75;;;;;7.42;67.99;102176.69;5039007;28;45479;-60
2022/01/19 07:28:50;;;;;;;;;33.50;27.00;;;;;7.39;68.23;102188.22;5036721;28;45537;-60
2022/01/19 07:31:16;;;;;;;;;49.25;40.25;;;;;7.32;68.71;102199.81;5056601;28;45545;-61
2022/01/19 07:33:42;;;;;;;;;40.50;35.00;;;;;7.20;69.06;102187.66;5056151;28;46142;-60
2022/01/19 07:36:07;;;;;;;;;36.50;27.75;;;;;7.31;68.89;102195.44;5056237;28;45703;-60
2022/01/19 07:38:33;;;;;;;;;38.50;35.75;;;;;7.23;68.84;102181.44;5055084;28;45282;-61
2022/01/19 07:40:58;;;;;;;;;42.00;34.50;;;;;7.27;68.52;102189.28;5056450;28;45641;-60
2022/01/19 07:43:24;;;;;;;;;38.25;36.00;;;;;7.36;68.44;102189.16;5055605;28;45495;-59
2022/01/19 07:45:49;;;;;;;;;38.25;30.75;;;;;7.32;68.50;102194.53;5056450;28;45615;-60
2022/01/19 07:48:15;;;;;;;;;45.50;38.75;;;;;7.23;68.67;102192.91;5038196;28;45384;-59
2022/01/19 07:50:41;;;;;;;;;54.25;40.25;;;;;7.23;69.14;102182.31;5038579;28;45544;-60
2022/01/19 07:53:06;;;;;;;;;38.25;35.75;;;;;7.23;69.14;102197.31;5055464;28;46270;-60
2022/01/19 07:55:32;;;;;;;;;47.25;40.75;;;;;7.29;69.48;102192.81;5056228;28;45466;-59
2022/01/19 07:57:57;;;;;;;;;34.25;33.25;;;;;7.34;68.55;102198.91;5056962;28;45326;-61
2022/01/19 08:00:23;;;;;;;;;43.00;36.00;;;;;7.33;68.84;102191.84;5056639;28;45410;-60
2022/01/19 08:02:51;;;;;;;;;41.75;32.75;;;;;7.40;68.53;102203.19;5055940;28;45457;-59
2022/01/19 08:05:17;;;;;;;;;42.50;36.25;;;;;7.36;68.74;102188.28;5038032;28;45365;-59
2022/01/19 08:07:43;;;;;;;;;43.50;40.25;;;;;7.35;68.61;102187.41;5056065;28;45221;-60
2022/01/19 08:10:10;;;;;;;;;37.25;30.25;;;;;7.36;69.04;102193.56;5056246;28;45668;-59
2022/01/19 08:12:36;;;;;;;;;43.75;35.75;;;;;7.31;68.80;102193.66;5038000;28;45416;-60
2022/01/19 08:15:01;;;;;;;;;32.00;30.25;;;;;7.34;68.96;102198.91;5021020;28;45489;-59
2022/01/19 08:17:27;;;;;;;;;34.00;30.50;;;;;7.35;69.35;102199.75;5056532;28;45464;-60
2022/01/19 08:19:54;;;;;;;;;33.50;32.00;;;;;7.37;69.06;102197.97;5056173;28;45393;-61
2022/01/19 08:22:20;;;;;;;;;29.00;26.75;;;;;7.35;69.32;102199.75;5021408;28;46059;-61
2022/01/19 08:24:45;;;;;;;;;38.00;33.00;;;;;7.36;69.16;102201.50;5054780;28;45494;-60
2022/01/19 08:27:12;;;;;;;;;44.00;34.50;;;;;7.39;69.20;102204.09;5056344;28;45460;-61
2022/01/19 08:29:37;;;;;;;;;39.25;35.75;;;;;7.37;68.84;102200.59;5056286;28;45548;-60
2022/01/19 08:32:04;;;;;;;;;44.25;35.50;;;;;7.34;69.30;102203.31;5055754;28;45251;-59
2022/01/19 08:34:30;;;;;;;;;42.25;35.00;;;;;7.34;69.65;102211.25;5055812;28;45370;-61
2022/01/19 08:36:56;;;;;;;;;40.50;34.00;;;;;7.38;69.26;102218.22;5055749;28;45280;-61
2022/01/19 08:39:22;;;;;;;;;36.75;31.25;;;;;7.44;68.98;102217.28;5055999;28;45442;-60
2022/01/19 08:41:48;;;;;;;;;36.50;32.00;;;;;7.45;69.13;102217.25;5055598;28;45842;-60
2022/01/19 08:44:13;;;;;;;;;43.00;32.50;;;;;7.44;68.97;102223.44;5055652;28;45297;-60
2022/01/19 08:46:40;;;;;;;;;37.00;32.75;;;;;7.45;69.32;102222.53;5055638;28;45400;-61
2022/01/19 08:49:06;;;;;;;;;33.75;31.00;;;;;7.47;69.18;102223.38;5055854;28;45655;-60
2022/01/19 08:51:31;;;;;;;;;38.50;31.50;;;;;7.52;69.02;102221.50;5055618;28;46029;-61
2022/01/19 08:53:57;;;;;;;;;33.75;28.50;;;;;7.50;68.88;102239.19;5055974;28;45285;-61
2022/01/19 08:56:22;;;;;;;;;34.75;27.25;;;;;7.48;69.07;102230.41;5037322;28;45219;-60
2022/01/19 08:58:48;;;;;;;;;36.75;32.25;;;;;7.47;69.05;102226.03;5055755;28;45220;-60
2022/01/19 09:01:13;;;;;;;;;45.25;30.00;;;;;7.49;69.16;102237.47;5037191;28;47024;-60
2022/01/19 09:03:39;;;;;;;;;41.75;31.75;;;;;7.53;68.74;102228.56;5055655;28;45225;-62
2022/01/19 09:06:05;;;;;;;;;40.25;34.75;;;;;7.57;68.82;102230.28;5059031;28;45301;-60
2022/01/19 09:08:31;;;;;;;;;43.50;33.00;;;;;7.59;68.33;102233.75;5059391;28;45593;-60
2022/01/19 09:10:58;;;;;;;;;33.25;31.00;;;;;7.58;68.46;102236.44;5058696;28;45352;-61
2022/01/19 09:13:25;;;;;;;;;33.50;28.50;;;;;7.50;68.04;102231.25;5040681;28;45764;-62
2022/01/19 09:15:50;;;;;;;;;37.00;30.00;;;;;7.53;68.09;102249.72;5058639;28;45481;-60
2022/01/19 09:18:15;;;;;;;;;30.25;28.75;;;;;7.52;68.49;102245.34;5058898;28;45384;-63
2022/01/19 09:20:41;;;;;;;;;32.25;28.00;;;;;7.47;68.50;102243.69;5058473;28;46497;-60
2022/01/19 09:23:07;;;;;;;;;31.75;29.00;;;;;7.54;68.84;102251.47;5058707;28;45405;-63
2022/01/19 09:25:32;;;;;;;;;32.50;28.25;;;;;7.57;68.42;102240.88;5059238;28;45328;-62
2022/01/19 09:27:59;;;;;;;;;34.25;33.00;;;;;7.58;68.49;102242.59;5058745;28;45664;-62
2022/01/19 09:30:25;;;;;;;;;38.00;33.75;;;;;7.64;68.82;102246.91;5058579;28;45576;-62
2022/01/19 09:33:05;;;;;;;;;25.00;24.00;;;;;7.69;68.43;102255.66;5040501;28;45380;-61
2022/01/19 09:35:39;;;;;;;;;37.25;33.25;;;;;7.67;68.47;102253.00;5058803;28;45514;-64
2022/01/19 09:38:05;;;;;;;;;40.50;30.50;;;;;7.68;68.71;102254.78;5058533;28;45882;-61
2022/01/19 09:40:31;;;;;;;;;43.00;30.75;;;;;7.58;68.97;102242.59;5036613;28;46955;-63
2022/01/19 09:42:56;;;;;;;;;33.50;32.25;;;;;7.66;67.82;102250.41;5058310;28;45430;-62
2022/01/19 09:45:22;;;;;;;;;36.50;32.25;;;;;7.64;67.91;102250.44;5058578;28;45388;-63
2022/01/19 09:47:47;;;;;;;;;29.50;29.00;;;;;7.72;68.18;102254.72;5057834;28;45547;-62
2022/01/19 09:50:13;;;;;;;;;32.25;30.75;;;;;7.71;68.27;102252.97;5058276;28;45307;-62
2022/01/19 09:52:39;;;;;;;;;37.75;35.00;;;;;7.73;68.36;102251.19;5058313;28;45182;-61
2022/01/19 09:55:06;;;;;;;;;37.75;31.00;;;;;7.68;67.88;102241.56;5058804;28;45178;-62
2022/01/19 09:57:33;;;;;;;;;28.50;24.50;;;;;7.65;67.80;102238.06;5058695;28;45437;-61
2022/01/19 09:59:59;;;;;;;;;34.00;31.50;;;;;7.71;67.95;102248.56;5058168;28;45425;-62
2022/01/19 10:02:25;;;;;;;;;40.25;31.00;;;;;7.69;67.75;102253.88;5058075;28;45437;-60
2022/01/19 10:04:51;;;;;;;;;39.75;34.00;;;;;7.65;68.23;102233.63;5058323;28;45269;-61
2022/01/19 10:07:23;;;;;;;;;40.00;32.50;;;;;7.67;68.49;102241.56;5039955;28;45936;-62
2022/01/19 10:09:59;;;;;;;;;43.25;25.75;;;;;7.64;68.17;102245.13;5057777;28;46317;-62
2022/01/19 10:18:13;;;;;;;;;39.25;31.25;;;;;7.67;68.26;102250.38;5058528;28;45316;-60
2022/01/19 10:20:39;;;;;;;;;44.00;34.75;;;;;7.71;68.16;102247.69;5039609;28;45662;-60
2022/01/19 10:23:05;;;;;;;;;40.50;34.00;;;;;7.69;67.99;102234.47;5058311;28;45319;-60
2022/01/19 10:25:50;;;;;;;;;42.25;35.00;;;;;7.66;67.59;102238.03;5039737;28;45385;-61
2022/01/19 10:28:16;;;;;;;;;46.50;38.00;;;;;7.62;67.62;102225.75;5056708;28;45486;-64
2022/01/19 10:30:41;;;;;;;;;42.25;35.25;;;;;7.68;68.06;102235.34;5057143;28;46075;-60
2022/01/19 10:33:07;;;;;;;;;38.50;34.00;;;;;7.71;67.89;102248.56;5057651;28;45673;-62
2022/01/19 10:35:38;;;;;;;;;40.50;36.50;;;;;7.70;68.20;102249.47;5057807;28;45794;-62
2022/01/19 10:38:14;;;;;;;;;50.75;40.00;;;;;7.62;68.02;102228.41;5058158;28;45436;-61
2022/01/19 10:41:05;;;;;;;;;46.25;37.75;;;;;7.69;68.21;102251.25;5057564;28;45484;-62
2022/01/19 10:43:42;;;;;;;;;39.75;35.00;;;;;7.68;68.11;102241.56;5047793;28;45317;-61
2022/01/19 10:46:28;;;;;;;;;52.50;41.75;;;;;7.71;68.28;102239.75;5058213;28;45380;-61
2022/01/19 10:49:01;;;;;;;;;48.00;38.25;;;;;7.74;67.84;102237.03;5057783;28;45451;-63
2022/01/19 10:51:32;;;;;;;;;39.00;34.50;;;;;7.71;67.89;102229.16;5057076;28;45642;-61
2022/01/19 10:54:13;;;;;;;;;39.25;34.25;;;;;7.75;67.84;102238.78;5038865;28;45248;-61
2022/01/19 10:56:41;;;;;;;;;61.00;42.75;;;;;7.73;67.88;102230.00;5057547;28;45363;-60
2022/01/19 10:59:10;;;;;;;;;46.25;39.50;;;;;7.76;68.09;102232.56;5039839;28;45588;-62
2022/01/19 11:01:39;;;;;;;;;48.00;39.00;;;;;7.75;68.06;102233.47;5039731;28;46465;-62
2022/01/19 11:04:28;;;;;;;;;45.75;37.25;;;;;7.76;67.74;102224.63;5039237;28;45553;-63
2022/01/19 11:07:11;;;;;;;;;54.50;43.00;;;;;7.77;68.03;102211.34;5056126;28;45245;-60
2022/01/19 11:09:59;;;;;;;;;57.50;43.25;;;;;7.74;67.49;102216.72;5057767;28;45238;-61
2022/01/19 11:12:32;;;;;;;;;51.50;44.50;;;;;7.76;68.35;102211.38;5056698;28;46577;-62
2022/01/19 11:14:57;;;;;;;;;63.00;47.75;;;;;7.68;68.61;102209.78;5056598;28;45249;-63
2022/01/19 11:17:23;;;;;;;;;63.75;46.25;;;;;7.66;68.47;102203.59;5056885;28;45518;-63
2022/01/19 11:19:49;;;;;;;;;62.00;46.50;;;;;7.67;68.80;102210.66;5057239;28;45550;-62
2022/01/19 11:22:34;;;;;;;;;60.75;47.00;;;;;7.69;68.96;102203.56;5038808;28;46019;-64
2022/01/19 11:25:08;;;;;;;;;60.75;47.00;;;;;7.69;68.63;102208.00;5056451;28;45342;-62
2022/01/19 11:27:45;;;;;;;;;55.25;48.25;;;;;7.62;68.83;102180.75;5055483;28;45264;-61
2022/01/19 11:30:24;;;;;;;;;60.50;51.00;;;;;7.70;69.04;102191.22;5057381;28;45226;-62
2022/01/19 11:33:24;;;;;;;;;65.00;50.25;;;;;7.76;68.81;102190.19;5056313;28;45522;-62
2022/01/19 11:35:51;;;;;;;;;62.75;50.00;;;;;7.80;68.63;102189.22;5039400;28;45205;-63
2022/01/19 11:38:33;;;;;;;;;65.75;50.75;;;;;7.78;69.15;102199.00;5056953;28;45702;-63
2022/01/19 11:41:25;;;;;;;;;65.75;50.00;;;;;7.80;68.79;102194.53;5056584;28;45657;-63
2022/01/19 11:43:56;;;;;;;;;53.00;45.00;;;;;7.77;68.84;102186.66;5056184;28;45425;-63
2022/01/19 11:46:34;;;;;;;;;58.50;48.00;;;;;7.77;69.05;102194.59;5038154;28;45965;-62
2022/01/19 11:49:05;;;;;;;;;62.00;44.50;;;;;7.75;69.41;102185.81;5055595;28;45527;-61
2022/01/19 11:51:39;;;;;;;;;56.75;45.50;;;;;7.70;68.51;102185.91;5056221;28;45535;-61
2022/01/19 11:54:12;;;;;;;;;61.50;48.00;;;;;7.69;69.27;102177.09;5056286;28;46002;-62
2022/01/19 11:56:59;;;;;;;;;60.25;47.75;;;;;7.69;69.33;102178.88;5037908;28;45419;-62
2022/01/19 11:59:26;;;;;;;;;64.00;48.00;;;;;7.68;69.10;102163.84;5038154;28;45256;-61
2022/01/19 12:01:52;;;;;;;;;49.75;42.50;;;;;7.71;69.33;102157.66;5056576;28;45269;-61
2022/01/19 12:04:22;;;;;;;;;60.25;47.25;;;;;7.71;69.55;102165.59;5038006;28;46795;-62
2022/01/19 12:06:49;;;;;;;;;56.25;42.25;;;;;7.71;69.30;102161.16;5056152;28;45339;-62
2022/01/19 12:09:16;;;;;;;;;51.00;42.00;;;;;7.72;69.32;102164.69;5056146;28;45234;-63
2022/01/19 12:11:49;;;;;;;;;45.75;43.00;;;;;7.71;70.04;102163.81;5038570;28;45286;-62
2022/01/19 12:14:21;;;;;;;;;40.75;36.50;;;;;7.73;69.81;102161.13;5055887;28;45506;-63
2022/01/19 12:19:38;;;;;;;;;41.00;36.00;;;;;7.72;69.86;102156.75;5055904;28;45620;-62
2022/01/19 12:22:08;;;;;;;;;45.25;39.50;;;;;7.75;69.25;102151.38;5055948;28;45477;-62
2022/01/19 12:24:54;;;;;;;;;41.75;38.00;;;;;7.72;69.18;102154.09;5055676;28;46721;-61
2022/01/19 12:27:19;;;;;;;;;38.50;36.00;;;;;7.77;69.19;102145.16;5055992;28;45343;-62
2022/01/19 12:29:53;;;;;;;;;35.75;31.75;;;;;7.79;69.22;102148.63;5055897;28;45464;-62
2022/01/19 12:32:19;;;;;;;;;38.00;36.50;;;;;7.81;69.30;102143.31;5037841;28;45697;-62
2022/01/19 12:34:57;;;;;;;;;45.75;36.00;;;;;7.80;68.95;102142.44;5055134;28;45339;-62
2022/01/19 12:37:34;;;;;;;;;39.50;30.25;;;;;7.81;69.07;102138.00;5055530;28;45395;-61
2022/01/19 12:40:06;;;;;;;;;45.00;34.25;;;;;7.83;69.52;102130.94;5040908;28;45601;-63
2022/01/19 12:42:54;;;;;;;;;34.75;30.25;;;;;7.90;69.20;102135.19;5059469;28;45394;-62
2022/01/19 12:45:55;;;;;;;;;38.75;31.25;;;;;7.85;69.42;102135.28;5059372;28;46089;-60
2022/01/19 12:48:41;;;;;;;;;44.00;35.50;;;;;7.89;69.11;102130.78;4996952;28;45527;-62
2022/01/19 12:51:36;;;;;;;;;45.50;31.50;;;;;7.85;68.88;102115.88;5053410;28;45504;-62